Time;durP1;ratioP1;P1;durP2;ratioP2;P2;SDS_P1;SDS_P2;PMS_P1;PMS_P2;Temp;Humidity;BMP_temperature;BMP_pressure;BME280_temperature;BME280_humidity;BME280_pressure;Samples;Min_cycle;Max_cycle;Signal;HPM_P1;HPM_P2
2022/09/03 04:17:01;;;;;;;14.52;5.38;;;;;;;9.04;70.02;100297.53;4876308;29;20068;-87
2022/09/03 04:19:29;;;;;;;12.65;4.93;;;;;;;8.99;69.78;100295.66;4866090;29;20399;-89
2022/09/03 04:21:55;;;;;;;;;;;;;;;9.12;69.85;100316.88;4864857;29;20037;-86
2022/09/03 04:24:21;;;;;;;9.88;4.90;;;;;;;8.98;69.69;100301.41;4880616;29;19945;-91
2022/09/03 04:26:49;;;;;;;9.10;5.37;;;;;;;8.90;70.56;100289.97;4882449;29;20044;-92
2022/09/03 04:29:16;;;;;;;10.90;5.10;;;;;;;9.09;69.70;100308.44;4882070;29;20052;-92
2022/09/03 04:32:51;;;;;;;8.88;4.65;;;;;;;8.85;69.68;100251.00;4865154;29;20119;-93
2022/09/03 04:34:28;;;;;;;7.47;4.97;;;;;;;8.99;69.56;100283.94;4890422;29;20052;-85
2022/09/03 04:36:57;;;;;;;10.73;4.60;;;;;;;9.24;69.81;100311.13;4863823;29;20437;-85
2022/09/03 04:39:23;;;;;;;7.30;4.70;;;;;;;9.24;69.87;100304.81;4859919;29;20054;-88
2022/09/03 04:41:49;;;;;;;9.17;4.43;;;;;;;9.23;69.41;100312.19;4878184;29;20056;-89
2022/09/03 04:44:15;;;;;;;6.47;4.55;;;;;;;9.18;69.86;100299.41;4879336;29;20139;-91
2022/09/03 04:46:41;;;;;;;11.70;5.85;;;;;;;9.26;69.41;100280.81;4880710;29;20048;-92
2022/09/03 04:49:08;;;;;;;8.25;4.50;;;;;;;9.64;68.36;100322.94;4858377;29;20045;-85
2022/09/03 04:51:36;;;;;;;10.23;4.75;;;;;;;9.60;68.74;100314.50;4875071;29;20029;-87
2022/09/03 04:54:02;;;;;;;9.85;5.30;;;;;;;9.57;68.93;100314.22;4861480;29;20526;-86
2022/09/03 04:56:31;;;;;;;8.43;5.17;;;;;;;9.43;67.89;100284.00;4845239;29;20048;-85
2022/09/03 04:59:00;;;;;;;14.63;4.97;;;;;;;9.55;68.29;100284.47;4865407;29;20048;-84
2022/09/03 05:01:28;;;;;;;11.30;5.15;;;;;;;9.64;67.88;100284.72;4872080;29;20048;-85
2022/09/03 05:03:56;;;;;;;14.38;5.65;;;;;;;9.73;68.24;100301.28;4871445;29;20116;-87
2022/09/03 05:06:24;;;;;;;10.00;5.28;;;;;;;9.97;68.26;100321.34;4862683;29;20037;-85
2022/09/03 05:08:52;;;;;;;6.55;4.25;;;;;;;9.97;67.50;100328.75;4839858;29;20144;-86
2022/09/03 05:11:19;;;;;;;12.10;4.70;;;;;;;9.91;67.33;100299.81;4859837;29;20125;-84
2022/09/03 05:13:50;;;;;;;7.13;3.72;;;;;;;9.75;66.76;100286.25;4854018;29;20045;-88
2022/09/03 05:16:17;;;;;;;6.10;3.92;;;;;;;9.88;66.60;100298.47;4873873;29;20057;-89
2022/09/03 05:18:44;;;;;;;;;;;;;;;10.21;66.92;100334.28;4884344;29;20052;-94
2022/09/03 05:21:16;;;;;;;8.75;4.45;;;;;;;10.00;66.54;100290.75;4863032;29;19924;-93
2022/09/03 05:23:45;;;;;;;7.95;4.35;;;;;;;10.23;66.12;100299.28;4871785;29;20037;-91
2022/09/03 05:26:21;;;;;;;7.80;4.03;;;;;;;10.02;66.29;100280.31;4874448;29;20040;-90
2022/09/03 05:28:51;;;;;;;6.50;4.13;;;;;;;10.32;66.29;100319.47;4870149;29;20116;-90
2022/09/03 05:31:20;;;;;;;12.13;4.15;;;;;;;10.15;65.81;100289.78;4851898;29;20067;-93
2022/09/03 05:33:52;;;;;;;8.35;3.90;;;;;;;10.02;65.55;100265.84;4849010;29;20048;-91
2022/09/03 05:36:22;;;;;;;10.13;4.43;;;;;;;10.32;65.55;100306.59;4851233;29;20093;-90
2022/09/03 05:38:53;;;;;;;8.20;4.47;;;;;;;10.15;65.40;100259.72;4862345;29;20065;-91
2022/09/03 05:41:20;;;;;;;10.80;4.05;;;;;;;10.70;64.85;100342.34;4864625;29;20037;-88
2022/09/03 05:43:55;;;;;;;9.73;4.90;;;;;;;10.77;64.69;100342.03;4864163;29;20070;-88
2022/09/03 05:46:41;;;;;;;14.10;4.55;;;;;;;10.65;65.21;100311.50;4885044;29;20131;-90
2022/09/03 05:49:10;;;;;;;7.85;4.38;;;;;;;10.70;64.71;100303.25;4866785;29;20036;-88
2022/09/03 05:51:40;;;;;;;13.55;4.20;;;;;;;11.02;63.45;100351.88;4882641;29;20045;-88
2022/09/03 05:54:07;;;;;;;11.48;3.88;;;;;;;10.80;63.39;100294.94;4867150;29;20562;-89
2022/09/03 05:56:35;;;;;;;6.57;3.60;;;;;;;11.06;62.36;100352.94;4868509;29;20541;-89
2022/09/03 05:59:05;;;;;;;6.57;3.30;;;;;;;11.09;62.50;100352.31;4855220;29;20116;-89
2022/09/03 06:01:36;;;;;;;8.93;3.45;;;;;;;11.36;61.55;100370.91;4869696;29;20048;-92
2022/09/03 06:04:05;;;;;;;6.18;3.10;;;;;;;11.13;61.49;100326.03;4853656;29;20049;-94
2022/09/03 06:06:34;;;;;;;7.43;3.30;;;;;;;11.39;61.93;100350.34;4865255;29;20041;-90
2022/09/03 06:09:06;;;;;;;11.45;3.80;;;;;;;11.63;62.59;100364.00;4849587;29;20037;-92
2022/09/03 06:11:34;;;;;;;17.58;3.10;;;;;;;11.51;61.00;100345.25;4864587;29;20048;-90
2022/09/03 06:14:06;;;;;;;6.20;2.83;;;;;;;11.79;61.13;100364.59;4848938;29;20131;-89
2022/09/03 06:16:38;;;;;;;6.45;2.95;;;;;;;11.44;59.71;100311.94;4895503;29;20060;-93
2022/09/03 06:19:08;;;;;;;6.97;2.53;;;;;;;11.33;59.90;100278.44;4864593;29;20040;-90
2022/09/03 06:21:41;;;;;;;5.45;3.20;;;;;;;11.91;60.63;100332.13;4849087;29;20049;-91
2022/09/03 06:24:14;;;;;;;7.38;3.05;;;;;;;11.90;60.81;100325.84;4864639;29;20045;-92
2022/09/03 06:26:41;;;;;;;5.60;2.70;;;;;;;12.01;59.48;100347.63;4865484;29;20073;-93
2022/09/03 06:29:07;;;;;;;9.23;2.58;;;;;;;12.13;57.75;100342.50;4866042;29;20033;-91
2022/09/03 06:31:34;;;;;;;6.32;2.47;;;;;;;12.27;57.88;100367.22;4852200;29;20087;-89
2022/09/03 06:34:01;;;;;;;7.60;2.20;;;;;;;12.32;58.51;100376.19;4866705;29;20039;-88
2022/09/03 06:36:27;;;;;;;6.30;2.40;;;;;;;12.23;58.15;100345.06;4865720;29;20137;-87
2022/09/03 06:39:00;;;;;;;6.60;2.17;;;;;;;12.31;56.65;100369.06;4870525;29;20165;-90
2022/09/03 06:41:32;;;;;;;7.45;2.83;;;;;;;12.22;57.21;100347.00;4873220;29;20068;-90
2022/09/03 06:44:03;;;;;;;10.18;2.78;;;;;;;12.55;57.54;100384.59;4907048;29;20051;-90
2022/09/03 06:46:37;;;;;;;6.65;2.40;;;;;;;12.55;56.77;100381.84;4879503;29;20051;-88
2022/09/03 06:49:04;;;;;;;13.52;2.67;;;;;;;12.54;56.35;100352.78;4859628;29;20041;-88
2022/09/03 06:51:31;;;;;;;7.77;2.33;;;;;;;12.84;55.52;100373.38;4814140;29;20101;-87
2022/09/03 06:54:04;;;;;;;7.80;2.40;;;;;;;12.66;55.26;100336.69;4776856;29;20298;-89
2022/09/03 06:56:32;;;;;;;7.35;2.30;;;;;;;12.61;54.97;100325.78;4773564;29;20050;-88
2022/09/03 06:59:07;;;;;;;10.55;2.50;;;;;;;13.04;54.89;100369.44;4791667;29;20093;-89
2022/09/03 07:01:34;;;;;;;5.15;2.20;;;;;;;13.26;54.47;100383.34;4792757;29;20057;-90
2022/09/03 07:04:03;;;;;;;5.95;2.33;;;;;;;12.79;53.32;100296.66;4788513;29;20042;-89
2022/09/03 07:06:39;;;;;;;8.07;3.35;;;;;;;13.30;52.48;100378.03;4788832;29;20123;-90
2022/09/03 07:09:06;;;;;;;7.97;2.42;;;;;;;13.34;52.95;100362.56;4772718;29;20484;-89
2022/09/03 07:11:34;;;;;;;14.20;2.85;;;;;;;13.33;53.67;100370.00;4759838;29;20053;-90
2022/09/03 07:14:03;;;;;;;8.30;1.83;;;;;;;13.17;52.53;100354.91;4794998;29;20047;-90
2022/09/03 07:16:35;;;;;;;23.30;2.47;;;;;;;13.24;52.48;100358.09;4774789;29;20130;-90
2022/09/03 07:19:04;;;;;;;8.88;2.67;;;;;;;13.21;52.54;100355.13;4804787;29;20050;-95
2022/09/03 07:21:36;;;;;;;8.48;1.92;;;;;;;13.35;52.48;100370.53;4806259;29;20046;-94
2022/09/03 07:24:04;;;;;;;12.38;3.00;;;;;;;12.86;52.09;100286.91;4867684;29;20148;-93
2022/09/03 07:26:34;;;;;;;4.07;2.00;;;;;;;13.55;51.81;100379.47;4846980;29;20407;-90
2022/09/03 07:29:00;;;;;;;9.60;2.10;;;;;;;13.22;50.73;100313.63;4877772;29;20050;-91
2022/09/03 07:31:32;;;;;;;12.73;1.90;;;;;;;13.19;49.89;100319.75;4895832;29;20072;-92
2022/09/03 07:34:05;;;;;;;8.98;2.40;;;;;;;13.29;50.81;100338.78;4872300;29;20052;-95
2022/09/03 07:36:42;;;;;;;4.20;1.70;;;;;;;13.17;49.55;100319.22;4850262;29;20421;-93
2022/09/03 07:39:14;;;;;;;7.97;1.85;;;;;;;13.33;49.29;100369.19;4877480;29;20053;-91
2022/09/03 07:41:44;;;;;;;5.32;1.90;;;;;;;13.48;50.17;100377.13;4844574;29;20404;-88
2022/09/03 07:44:14;;;;;;;6.00;1.95;;;;;;;13.34;50.30;100346.09;4812195;29;20117;-92
2022/09/03 07:46:46;;;;;;;8.43;2.05;;;;;;;13.32;50.20;100338.19;4823707;29;20152;-92
2022/09/03 07:49:12;;;;;;;3.20;2.10;;;;;;;13.52;48.87;100360.84;4781776;29;20077;-90
2022/09/03 07:51:40;;;;;;;4.20;2.20;;;;;;;13.59;49.67;100375.78;4807780;29;20042;-91
2022/09/03 07:54:09;;;;;;;4.63;2.10;;;;;;;13.44;49.38;100326.66;4806044;29;20026;-91
2022/09/03 07:56:38;;;;;;;12.45;2.38;;;;;;;13.39;48.53;100308.34;4806976;29;20101;-92
2022/09/03 07:59:04;;;;;;;8.07;2.58;;;;;;;13.62;49.52;100353.19;4815913;29;20057;-90
2022/09/03 08:01:32;;;;;;;3.23;2.23;;;;;;;13.72;48.88;100340.34;4792449;29;20097;-93
2022/09/03 08:04:00;;;;;;;8.98;2.30;;;;;;;14.06;49.49;100368.16;4780628;29;20054;-87
2022/09/03 08:06:28;;;;;;;6.68;2.20;;;;;;;14.09;47.30;100353.78;4782356;29;20051;-91
2022/09/03 08:09:01;;;;;;;3.13;2.00;;;;;;;13.95;46.82;100333.78;4782695;29;20050;-91
2022/09/03 08:11:28;;;;;;;6.63;1.80;;;;;;;14.18;48.18;100366.81;4826423;29;20088;-92
2022/09/03 08:14:00;;;;;;;;;;;;;;;14.26;48.25;100366.03;4796974;29;20050;-91
2022/09/03 08:16:29;;;;;;;5.30;1.80;;;;;;;14.26;47.29;100364.09;4801005;29;19931;-92
2022/09/03 08:18:55;;;;;;;4.25;1.88;;;;;;;13.89;45.93;100304.78;4828189;29;20050;-92
2022/09/03 08:21:23;;;;;;;5.35;1.75;;;;;;;14.03;45.51;100333.03;4833886;29;20399;-93
2022/09/03 08:24:02;;;;;;;2.47;1.65;;;;;;;14.17;45.01;100351.41;4847666;29;20121;-95
2022/09/03 08:26:32;;;;;;;7.57;2.00;;;;;;;13.80;45.53;100292.91;4849387;29;20077;-95
2022/09/03 08:28:59;;;;;;;4.25;1.85;;;;;;;13.94;45.75;100345.91;4851892;29;20045;-94
2022/09/03 08:31:27;;;;;;;7.97;2.00;;;;;;;13.86;44.82;100308.97;4832882;29;20073;-93
2022/09/03 08:33:55;;;;;;;3.15;1.70;;;;;;;13.96;45.48;100299.66;4849227;29;20056;-93
2022/09/03 08:36:24;;;;;;;8.25;2.25;;;;;;;14.29;44.98;100327.72;4836302;29;20127;-96
2022/09/03 08:38:54;;;;;;;5.63;1.70;;;;;;;14.13;43.82;100298.97;4833360;29;20037;-93
2022/09/03 08:41:32;;;;;;;3.08;1.40;;;;;;;14.42;44.21;100341.72;4843967;29;20040;-95
2022/09/03 08:44:47;;;;;;;4.07;1.73;;;;;;;14.69;44.81;100363.63;4849421;29;20454;-95
2022/09/03 08:47:33;;;;;;;7.88;1.90;;;;;;;14.70;43.92;100358.91;4854207;29;20049;-94
2022/09/03 08:50:12;;;;;;;5.22;1.70;;;;;;;14.76;44.04;100360.41;4846048;29;20145;-93
2022/09/03 08:52:48;;;;;;;2.38;1.55;;;;;;;14.28;43.36;100304.09;4857069;29;20058;-92
2022/09/03 08:55:43;;;;;;;7.53;1.70;;;;;;;14.45;43.68;100332.84;4844563;29;20527;-94
2022/09/03 08:58:18;;;;;;;2.65;1.80;;;;;;;14.51;44.21;100302.19;4795757;29;20046;-93
2022/09/03 09:01:02;;;;;;;7.25;1.80;;;;;;;14.70;42.63;100303.88;4815471;29;20054;-93
2022/09/03 09:04:02;;;;;;;13.07;1.80;;;;;;;15.15;42.47;100356.06;4831066;29;20044;-93
2022/09/03 09:06:29;;;;;;;7.65;2.00;;;;;;;15.12;42.25;100371.28;4815550;29;20050;-95
2022/09/03 09:09:18;;;;;;;15.10;2.67;;;;;;;15.04;41.88;100366.56;4886527;29;20076;-91
2022/09/03 09:11:49;;;;;;;8.85;3.10;;;;;;;14.92;43.06;100360.84;4857894;29;20045;-94
2022/09/03 09:14:19;;;;;;;5.72;1.73;;;;;;;14.76;43.50;100354.91;4866065;29;20052;-93
2022/09/03 09:17:01;;;;;;;7.82;1.77;;;;;;;14.70;43.80;100357.00;4850618;29;20053;-93
2022/09/03 09:19:54;;;;;;;3.85;1.98;;;;;;;14.53;43.66;100329.38;4843616;29;20049;-94
2022/09/03 09:22:31;;;;;;;2.80;1.55;;;;;;;14.23;43.50;100273.97;4836275;29;20037;-94
2022/09/03 09:25:07;;;;;;;13.55;2.85;;;;;;;14.60;43.33;100296.69;4857065;29;20045;-93
2022/09/03 09:27:34;;;;;;;3.35;1.83;;;;;;;14.78;43.10;100292.91;4889455;29;20051;-93
2022/09/03 09:32:30;;;;;;;7.53;1.67;;;;;;;15.17;40.90;100307.81;4888676;29;20051;-95
2022/09/03 09:34:56;;;;;;;7.68;1.80;;;;;;;14.73;40.98;100268.28;4851948;29;20079;-93
2022/09/03 09:39:59;;;;;;;3.33;1.42;;;;;;;14.81;40.69;100277.72;4883477;29;20041;-95
2022/09/03 09:42:29;;;;;;;4.85;1.60;;;;;;;15.20;39.86;100287.09;4871250;29;20491;-95
2022/09/03 09:45:07;;;;;;;2.58;1.73;;;;;;;15.58;41.35;100328.66;4870115;29;20144;-95
2022/09/03 09:47:38;;;;;;;7.00;1.60;;;;;;;15.43;39.46;100288.59;4885114;29;20052;-94
2022/09/03 09:50:20;;;;;;;10.75;1.73;;;;;;;15.67;38.34;100307.47;4854870;29;20041;-94
2022/09/03 09:52:48;;;;;;;4.00;1.38;;;;;;;15.38;38.52;100241.91;4868761;29;20109;-94
2022/09/03 09:55:26;;;;;;;2.78;1.58;;;;;;;15.63;38.19;100275.28;4863584;29;20049;-96
2022/09/03 09:58:10;;;;;;;11.65;2.15;;;;;;;16.22;38.23;100350.13;4866785;29;20041;-96
2022/09/03 10:00:38;;;;;;;5.65;1.80;;;;;;;15.79;38.30;100259.13;4856389;29;20041;-96
2022/09/03 10:03:20;;;;;;;4.22;1.60;;;;;;;16.06;38.03;100319.47;4860562;29;20037;-95
2022/09/03 10:05:59;;;;;;;7.38;1.70;;;;;;;15.89;39.01;100306.50;4864089;29;20042;-94
2022/09/03 10:12:28;;;;;;;5.13;1.40;;;;;;;15.44;36.85;100261.84;4851083;29;20057;-96
2022/09/03 10:15:32;;;;;;;3.22;1.30;;;;;;;15.70;36.98;100336.31;4867021;29;20060;-95
2022/09/03 10:18:39;;;;;;;4.65;1.40;;;;;;;15.49;36.88;100336.88;4869034;29;20053;-95
2022/09/03 10:21:46;;;;;;;3.83;1.20;;;;;;;14.96;37.08;100241.47;4852095;29;20068;-95
2022/09/03 10:24:39;;;;;;;4.80;1.50;;;;;;;15.59;38.06;100335.78;4788779;29;20047;-96
2022/09/03 10:27:11;;;;;;;3.63;1.48;;;;;;;15.13;37.99;100292.22;4782664;29;20074;-96
2022/09/03 10:29:40;;;;;;;1.85;1.20;;;;;;;14.71;38.83;100237.53;4778055;30;20749;-95
2022/09/03 10:32:41;;;;;;;4.07;1.33;;;;;;;15.47;38.08;100330.91;4785043;29;20134;-95
2022/09/03 10:35:29;;;;;;;7.45;1.63;;;;;;;14.92;37.40;100223.16;4778980;29;20066;-94
2022/09/03 10:38:16;;;;;;;4.90;1.50;;;;;;;15.55;37.25;100334.78;4778695;29;20567;-92
2022/09/03 10:40:56;;;;;;;3.13;1.58;;;;;;;15.66;37.16;100327.91;4769682;30;20560;-94
2022/09/03 10:44:12;;;;;;;7.38;1.58;;;;;;;15.81;37.30;100336.81;4777558;29;20517;-95
2022/09/03 10:46:47;;;;;;;5.50;1.60;;;;;;;15.27;36.97;100238.66;4779402;29;20714;-96
2022/09/03 10:50:15;;;;;;;2.85;1.40;;;;;;;15.36;37.00;100262.63;4756580;30;20767;-96
2022/09/03 10:53:15;;;;;;;1.42;1.33;;;;;;;15.44;37.60;100239.81;4718767;30;20048;-95
2022/09/03 10:56:24;;;;;;;3.35;1.27;;;;;;;16.11;36.39;100329.53;4723888;30;20064;-96
2022/09/03 10:59:32;;;;;;;9.15;1.63;;;;;;;15.83;36.51;100273.91;4729210;30;20075;-95
2022/09/03 11:02:15;;;;;;;5.18;1.60;;;;;;;16.31;36.73;100325.28;4794518;29;20050;-95
2022/09/03 11:04:59;;;;;;;3.90;1.40;;;;;;;15.96;37.68;100251.66;4778580;29;20054;-96
2022/09/03 11:07:38;;;;;;;3.45;1.48;;;;;;;16.09;36.73;100299.53;4780858;29;20051;-92
2022/09/03 11:10:27;;;;;;;2.05;1.58;;;;;;;16.35;37.95;100340.03;4775876;29;20070;-95
2022/09/03 11:13:17;;;;;;;7.05;1.52;;;;;;;16.08;37.17;100291.56;4778872;29;20131;-95
2022/09/03 11:16:03;;;;;;;3.38;1.35;;;;;;;15.60;37.78;100231.88;4794550;29;20055;-96
2022/09/03 11:19:14;;;;;;;11.50;2.47;;;;;;;16.15;37.32;100328.53;4791649;29;20436;-95
2022/09/03 11:24:53;;;;;;;9.90;1.87;;;;;;;15.39;37.30;100245.44;4842483;24;20064;-91
2022/09/03 11:27:35;;;;;;;4.93;1.60;;;;;;;15.96;37.81;100328.09;4878888;29;20048;-92
2022/09/03 11:31:12;;;;;;;7.88;1.75;;;;;;;16.03;37.94;100275.19;4849222;29;20068;-94
2022/09/03 11:37:29;;;;;;;6.90;2.20;;;;;;;16.34;35.49;100277.72;5001093;23;20052;-96
2022/09/03 11:40:20;;;;;;;6.35;1.73;;;;;;;16.20;35.58;100226.31;4860237;29;20064;-95
2022/09/03 11:42:47;;;;;;;4.03;1.40;;;;;;;16.36;34.31;100210.03;4864858;29;20076;-92
2022/09/03 11:45:47;;;;;;;5.13;1.50;;;;;;;17.17;34.17;100279.22;4872770;29;20049;-93
2022/09/03 11:52:27;;;;;;;5.47;2.58;;;;;;;16.64;34.20;100191.06;4857931;29;20054;-95
2022/09/03 11:55:02;;;;;;;5.70;1.83;;;;;;;16.63;34.53;100197.75;4863626;29;20047;-94
2022/09/03 11:57:56;;;;;;;4.22;2.25;;;;;;;16.95;36.22;100289.41;4875375;29;20401;-94
2022/09/03 12:00:46;;;;;;;;;;;;;;;;;;;;;
2022/09/03 12:04:03;;;;;;;26.40;3.83;;;;;;;16.93;35.70;100288.94;4878653;29;20037;-91
2022/09/03 12:07:09;;;;;;;23.52;2.97;;;;;;;16.81;35.73;100289.63;4864631;29;20414;-93
2022/09/03 12:09:54;;;;;;;43.92;5.53;;;;;;;16.76;36.17;100291.78;4845623;29;20042;-88
2022/09/03 12:12:44;;;;;;;28.33;4.53;;;;;;;16.82;37.02;100287.66;4845797;29;20046;-94
2022/09/03 12:15:37;;;;;;;25.75;3.40;;;;;;;16.96;37.26;100279.19;4849533;29;20052;-93
2022/09/03 12:18:21;;;;;;;30.08;3.85;;;;;;;16.29;36.08;100184.91;4859830;29;20499;-90
2022/09/03 12:21:07;;;;;;;32.42;4.78;;;;;;;16.74;36.70;100233.25;4848045;29;20045;-92
2022/09/03 12:23:59;;;;;;;7.90;2.72;;;;;;;16.80;36.34;100243.81;4847993;29;20102;-92
2022/09/03 12:26:26;;;;;;;8.35;2.20;;;;;;;17.01;34.83;100243.06;4826457;29;20090;-91
2022/09/03 12:29:05;;;;;;;;;;;;;;;17.36;34.67;100274.88;4810253;29;20143;-93
2022/09/03 12:31:50;;;;;;;4.95;1.40;;;;;;;16.96;34.96;100188.03;4795842;29;19924;-92
2022/09/03 12:34:22;;;;;;;2.80;1.23;;;;;;;17.16;32.77;100223.16;4813312;29;20090;-90
2022/09/03 12:36:51;;;;;;;2.17;1.17;;;;;;;17.04;33.67;100179.66;4823874;29;20049;-93
2022/09/03 12:39:26;;;;;;;2.22;1.40;;;;;;;17.35;33.87;100242.03;4842021;29;20042;-91
2022/09/03 12:42:24;;;;;;;3.22;1.58;;;;;;;17.64;33.86;100263.28;4840181;29;20060;-93
2022/09/03 12:44:52;;;;;;;3.42;1.63;;;;;;;17.00;33.62;100173.19;4826006;29;20105;-93
2022/09/03 12:47:26;;;;;;;7.22;1.75;;;;;;;17.36;33.16;100224.31;4829989;29;20661;-94
2022/09/03 12:50:20;;;;;;;9.70;2.05;;;;;;;17.28;33.66;100195.59;4798546;29;20062;-93
2022/09/03 12:53:00;;;;;;;3.88;1.60;;;;;;;17.27;34.01;100253.97;4831254;29;20042;-92
2022/09/03 12:55:40;;;;;;;15.27;1.80;;;;;;;16.67;33.76;100192.38;4829504;29;20093;-92
2022/09/03 12:58:49;;;;;;;1.35;1.00;;;;;;;16.07;34.75;100165.81;4844767;29;20042;-92
2022/09/03 13:01:26;;;;;;;10.52;1.90;;;;;;;15.76;35.54;100163.28;4837257;29;20058;-91
2022/09/03 13:04:24;;;;;;;;;;;;;;;;;;;;;
2022/09/03 13:07:02;;;;;;;8.70;2.10;;;;;;;16.00;36.13;100202.19;4860799;29;20056;-91
2022/09/03 13:09:31;;;;;;;5.05;1.65;;;;;;;15.70;37.10;100157.16;4865020;29;20051;-91
2022/09/03 13:12:00;;;;;;;4.90;1.55;;;;;;;16.00;36.64;100213.22;4849353;29;20045;-92
2022/09/03 13:14:30;;;;;;;7.85;3.30;;;;;;;16.09;37.38;100222.28;4864904;29;20045;-92
2022/09/03 13:17:38;;;;;;;5.57;1.73;;;;;;;16.23;37.88;100248.88;4880512;29;20415;-92
2022/09/03 13:20:28;;;;;;;16.27;2.65;;;;;;;16.44;38.67;100255.28;4849452;29;20077;-91
2022/09/03 13:23:33;;;;;;;9.32;1.88;;;;;;;16.09;36.27;100172.63;4853239;29;20047;-93
2022/09/03 13:26:48;;;;;;;9.43;1.80;;;;;;;16.55;35.33;100161.88;4841062;29;20037;-95
2022/09/03 13:30:04;;;;;;;11.00;2.00;;;;;;;16.97;36.05;100170.31;4839873;29;20057;-92
2022/09/03 13:32:59;;;;;;;7.28;1.70;;;;;;;17.49;35.52;100234.31;4843616;29;20048;-91
2022/09/03 13:36:32;;;;;;;4.95;1.63;;;;;;;17.36;35.72;100233.41;4752004;29;20051;-92
2022/09/03 13:44:07;;;;;;;40.95;6.88;;;;;;;17.42;35.41;100208.31;4697904;30;20090;-93
2022/09/03 13:47:37;;;;;;;96.03;7.60;;;;;;;17.58;37.49;100229.53;4699856;30;20130;-96
2022/09/03 13:50:27;;;;;;;27.17;5.45;;;;;;;17.29;37.06;100166.03;4674825;30;20058;-95
2022/09/03 13:52:59;;;;;;;6.75;2.00;;;;;;;17.60;36.46;100227.22;4675058;30;20046;-91
2022/09/03 13:59:38;;;;;;;149.82;14.63;;;;;;;17.81;37.47;100235.53;4681658;30;20079;-94
2022/09/03 14:02:43;;;;;;;39.22;4.93;;;;;;;17.94;36.72;100228.09;4671510;30;20050;-95
2022/09/03 14:05:33;;;;;;;8.48;2.50;;;;;;;17.93;36.17;100223.72;4670993;30;20050;-93
2022/09/03 14:08:08;;;;;;;21.88;3.13;;;;;;;17.53;36.26;100163.38;4672690;30;20050;-92
2022/09/03 14:10:51;;;;;;;4.05;1.73;;;;;;;17.87;35.20;100210.44;4706106;30;20139;-88
2022/09/03 14:13:30;;;;;;;8.52;2.55;;;;;;;17.61;36.27;100187.38;4758810;30;20071;-90
2022/09/03 14:16:33;;;;;;;4.07;1.67;;;;;;;17.43;35.94;100176.78;4786973;29;20057;-94
2022/09/03 14:18:59;;;;;;;10.90;2.30;;;;;;;17.73;36.57;100207.91;4799047;29;20053;-92
2022/09/03 14:21:41;;;;;;;13.82;2.63;;;;;;;17.67;35.33;100206.50;4858278;29;20538;-91
2022/09/03 14:24:18;;;;;;;6.22;3.08;;;;;;;17.73;36.52;100202.38;4860678;29;20037;-89
2022/09/03 14:27:01;;;;;;;67.05;6.43;;;;;;;17.66;36.05;100183.59;4861392;29;20533;-96
2022/09/03 14:29:35;;;;;;;134.63;14.75;;;;;;;17.48;36.32;100141.47;4846599;29;20041;-93
2022/09/03 14:32:22;;;;;;;54.33;9.45;;;;;;;17.82;35.77;100211.47;4875104;29;20594;-89
2022/09/03 14:35:25;;;;;;;26.05;3.63;;;;;;;17.59;36.03;100205.44;4863617;29;20045;-91
2022/09/03 14:37:55;;;;;;;9.20;2.00;;;;;;;17.47;36.82;100180.50;4849276;29;20069;-92
2022/09/03 14:40:42;;;;;;;91.45;7.05;;;;;;;17.05;36.34;100116.94;4848991;29;20404;-91
2022/09/03 14:43:39;;;;;;;6.00;2.25;;;;;;;17.23;37.07;100198.56;4865480;29;20065;-95
2022/09/03 14:46:28;;;;;;;4.28;1.60;;;;;;;17.10;36.86;100202.38;4864912;29;20049;-92
2022/09/03 14:49:41;;;;;;;5.63;1.92;;;;;;;16.47;37.22;100115.84;4847548;29;20060;-95
2022/09/03 14:52:35;;;;;;;8.88;3.63;;;;;;;16.75;36.98;100160.34;4840791;23;20140;-92
2022/09/03 14:55:23;;;;;;;17.13;7.53;;;;;;;16.93;36.58;100183.97;4826493;29;20092;-92
2022/09/03 14:58:07;;;;;;;17.33;3.80;;;;;;;16.88;37.87;100181.41;4848073;29;20089;-92
2022/09/03 15:00:47;;;;;;;43.53;6.30;;;;;;;16.65;37.55;100154.06;4847264;29;20124;-90
2022/09/03 15:03:51;;;;;;;4.22;2.65;;;;;;;16.74;38.50;100186.31;4846602;29;20133;-90
2022/09/03 15:06:34;;;;;;;9.25;2.83;;;;;;;16.28;40.20;100139.13;4850009;29;20064;-92
2022/09/03 15:09:22;;;;;;;12.43;3.50;;;;;;;16.52;39.58;100188.19;4881048;29;20065;-96
2022/09/03 15:11:56;;;;;;;12.35;2.75;;;;;;;15.99;39.91;100134.34;4868314;29;20049;-93
2022/09/03 15:14:38;;;;;;;13.27;2.88;;;;;;;15.70;39.90;100083.53;4862665;29;20049;-91
2022/09/03 15:17:17;;;;;;;8.55;2.85;;;;;;;15.89;40.47;100116.25;4848265;29;20041;-91
2022/09/03 15:20:05;;;;;;;14.50;4.47;;;;;;;16.27;40.40;100184.41;4851733;29;20045;-91
2022/09/03 15:23:16;;;;;;;6.95;3.60;;;;;;;15.87;40.66;100132.28;4850701;29;20106;-96
2022/09/03 15:25:48;;;;;;;6.75;3.28;;;;;;;16.18;40.41;100189.94;4858104;29;20045;-94
2022/09/03 15:28:31;;;;;;;21.33;3.22;;;;;;;15.71;39.77;100096.16;4857629;29;20507;-93
2022/09/03 15:31:43;;;;;;;13.05;3.05;;;;;;;16.42;39.83;100188.56;4855947;29;20045;-90
2022/09/03 15:34:13;;;;;;;13.13;5.55;;;;;;;16.43;40.22;100196.53;4839004;29;20594;-90
2022/09/03 15:36:52;;;;;;;21.95;5.90;;;;;;;16.27;44.61;100147.75;4869627;29;20042;-89
2022/09/03 15:39:28;;;;;;;;;;;;;;;16.39;46.21;100178.19;4855856;29;20049;-90
2022/09/03 15:42:00;;;;;;;;;;;;;;;16.19;46.50;100182.47;4835760;29;19932;-89
2022/09/03 15:44:37;;;;;;;3.88;2.00;;;;;;;15.42;46.44;100129.09;4875028;29;19970;-95
2022/09/03 15:47:12;;;;;;;3.45;1.98;;;;;;;15.39;45.92;100151.78;4871992;29;20108;-90
2022/09/03 15:49:54;;;;;;;5.15;1.90;;;;;;;15.60;47.09;100185.81;4881915;29;20048;-91
2022/09/03 15:52:57;;;;;;;3.83;2.25;;;;;;;15.53;47.89;100193.78;4875263;29;20053;-92
2022/09/03 15:55:51;;;;;;;8.95;2.78;;;;;;;15.35;48.42;100181.13;4868723;29;20049;-91
2022/09/03 15:58:33;;;;;;;6.93;2.97;;;;;;;15.33;48.80;100191.63;4898762;29;20060;-90
2022/09/03 16:01:23;;;;;;;9.75;4.25;;;;;;;15.24;49.95;100184.19;4851796;29;20056;-89
2022/09/03 16:04:16;;;;;;;12.60;4.63;;;;;;;15.18;49.47;100193.75;4870758;29;20081;-89
2022/09/03 16:07:03;;;;;;;16.75;3.67;;;;;;;15.04;48.13;100185.63;4848688;29;20171;-90
2022/09/03 16:09:53;;;;;;;11.00;2.92;;;;;;;14.89;48.79;100183.31;4871847;29;20049;-90
2022/09/03 16:13:06;;;;;;;18.67;3.97;;;;;;;14.63;47.86;100132.91;4843586;29;20109;-89
2022/09/03 16:15:42;;;;;;;6.72;2.97;;;;;;;14.59;47.85;100138.22;4848406;29;20048;-88
2022/09/03 16:18:34;;;;;;;17.80;4.40;;;;;;;14.52;48.56;100138.69;4866001;29;20037;-91
2022/09/03 16:21:21;;;;;;;21.85;8.77;;;;;;;14.67;49.26;100170.50;4860576;29;20037;-91
2022/09/03 16:24:15;;;;;;;25.17;6.60;;;;;;;14.82;47.98;100199.50;4864924;29;20130;-92
2022/09/03 16:26:51;;;;;;;22.73;10.98;;;;;;;14.60;48.76;100180.31;4846262;29;20117;-89
2022/09/03 16:29:29;;;;;;;39.50;14.85;;;;;;;14.09;50.20;100111.81;4865675;29;20048;-88
2022/09/03 16:31:56;;;;;;;38.50;16.10;;;;;;;14.62;51.17;100194.59;4874346;29;20101;-89
2022/09/03 16:34:52;;;;;;;37.70;14.13;;;;;;;14.31;51.88;100159.66;4827687;29;20054;-90
2022/09/03 16:37:48;;;;;;;59.13;26.33;;;;;;;14.46;52.06;100194.16;4836600;29;20046;-89
2022/09/03 16:40:31;;;;;;;36.40;15.57;;;;;;;14.29;50.73;100181.94;4807926;29;20051;-89
2022/09/03 16:43:06;;;;;;;28.48;11.90;;;;;;;14.38;50.92;100206.75;4846973;29;20065;-89
2022/09/03 16:45:53;;;;;;;40.10;15.57;;;;;;;14.01;52.11;100144.78;4814301;29;20053;-88
2022/09/03 16:48:48;;;;;;;85.38;24.65;;;;;;;13.85;53.41;100144.38;4831857;29;20054;-88
2022/09/03 16:51:42;;;;;;;97.47;35.78;;;;;;;13.79;53.12;100151.13;4814805;29;20101;-90
2022/09/03 16:54:37;;;;;;;93.40;34.75;;;;;;;13.89;53.80;100172.84;4830216;29;20043;-91
2022/09/03 16:57:27;;;;;;;124.65;44.78;;;;;;;14.04;54.92;100215.63;4810446;29;20141;-90
2022/09/03 17:00:15;;;;;;;110.47;44.65;;;;;;;14.03;54.64;100222.25;4813946;29;20069;-91
2022/09/03 17:03:01;;;;;;;100.13;39.13;;;;;;;13.94;55.72;100211.22;4819797;29;20539;-90
2022/09/03 17:05:51;;;;;;;103.47;36.88;;;;;;;13.82;56.04;100214.50;4820662;29;20098;-93
2022/09/03 17:09:13;;;;;;;69.22;29.02;;;;;;;13.11;56.05;100111.81;4828629;29;20043;-92
2022/09/03 17:12:18;;;;;;;80.35;31.63;;;;;;;13.48;56.89;100171.13;4843390;29;20056;-92